Time;durP1;ratioP1;P1;durP2;ratioP2;P2;SDS_P1;SDS_P2;PMS_P1;PMS_P2;Temp;Humidity;BMP_temperature;BMP_pressure;BME280_temperature;BME280_humidity;BME280_pressure;Samples;Min_cycle;Max_cycle;Signal;HPM_P1;HPM_P2
2022/03/14 00:01:31;;;;;;;10.27;6.93;;;;;;;;;;5028841;28;20076;-66
2022/03/14 00:03:58;;;;;;;10.35;7.47;;;;;;;;;;5026129;28;20033;-67
2022/03/14 00:06:25;;;;;;;9.07;7.22;;;;;;;;;;5021386;28;20029;-66
2022/03/14 00:08:55;;;;;;;11.88;7.72;;;;;;;;;;5023190;28;20029;-67
2022/03/14 00:11:23;;;;;;;10.18;7.13;;;;;;;;;;5026693;28;20025;-66
2022/03/14 00:13:50;;;;;;;8.63;6.95;;;;;;;;;;5026020;28;20036;-67
2022/03/14 00:16:25;;;;;;;7.72;6.25;;;;;;;;;;5027545;28;20029;-67
2022/03/14 00:18:53;;;;;;;9.07;6.82;;;;;;;;;;5026655;28;20041;-67
2022/03/14 00:21:23;;;;;;;9.20;6.78;;;;;;;;;;5027268;28;20040;-67
2022/03/14 00:23:54;;;;;;;9.80;6.88;;;;;;;;;;5026251;28;20021;-67
2022/03/14 00:26:22;;;;;;;7.45;6.70;;;;;;;;;;5026370;28;20123;-66
2022/03/14 00:28:49;;;;;;;8.93;6.32;;;;;;;;;;5024100;28;20037;-66
2022/03/14 00:31:15;;;;;;;10.30;7.05;;;;;;;;;;5027886;28;20122;-67
2022/03/14 00:33:41;;;;;;;9.57;6.82;;;;;;;;;;5024964;28;20451;-66
2022/03/14 00:36:08;;;;;;;8.30;6.72;;;;;;;;;;5022887;28;20513;-67
2022/03/14 00:38:36;;;;;;;13.38;6.78;;;;;;;;;;5026490;28;20036;-67
2022/03/14 00:41:03;;;;;;;9.20;6.68;;;;;;;;;;5026181;28;20913;-67
2022/03/14 00:43:30;;;;;;;12.18;7.05;;;;;;;;;;5027589;28;20498;-67
2022/03/14 00:45:56;;;;;;;7.85;6.22;;;;;;;;;;5026904;28;20485;-66
2022/03/14 00:48:22;;;;;;;10.23;7.00;;;;;;;;;;5025806;28;20507;-68
2022/03/14 00:50:49;;;;;;;11.57;7.10;;;;;;;;;;5026979;28;20042;-68
2022/03/14 00:53:15;;;;;;;11.73;6.63;;;;;;;;;;5026486;28;20045;-68
2022/03/14 00:55:41;;;;;;;9.32;6.35;;;;;;;;;;5025322;28;20099;-67
2022/03/14 00:58:09;;;;;;;8.00;6.25;;;;;;;;;;5025590;28;20029;-67
2022/03/14 01:00:35;;;;;;;8.55;6.40;;;;;;;;;;5027469;28;20119;-67
2022/03/14 01:03:01;;;;;;;7.55;6.22;;;;;;;;;;5026114;28;20096;-67
2022/03/14 01:05:28;;;;;;;10.20;6.90;;;;;;;;;;5025627;28;20949;-67
2022/03/14 01:07:53;;;;;;;7.18;5.90;;;;;;;;;;5026753;28;20042;-68
2022/03/14 01:10:20;;;;;;;9.30;6.07;;;;;;;;;;5026769;28;20040;-68
2022/03/14 01:12:46;;;;;;;11.70;7.32;;;;;;;;;;5026822;28;20037;-67
2022/03/14 01:15:12;;;;;;;11.13;6.63;;;;;;;;;;5025833;28;20036;-68
2022/03/14 01:17:40;;;;;;;10.70;6.30;;;;;;;;;;5026064;28;20022;-67
2022/03/14 01:20:08;;;;;;;9.57;5.93;;;;;;;;;;5026662;28;20033;-67
2022/03/14 01:22:35;;;;;;;8.65;6.15;;;;;;;;;;5026531;28;20036;-67
2022/03/14 01:25:02;;;;;;;7.18;6.32;;;;;;;;;;5025640;28;20242;-68
2022/03/14 01:27:28;;;;;;;7.15;5.95;;;;;;;;;;5025347;28;20037;-68
2022/03/14 01:29:55;;;;;;;10.13;5.90;;;;;;;;;;5026445;28;20021;-68
2022/03/14 01:32:21;;;;;;;12.35;6.43;;;;;;;;;;5026879;28;20025;-68
2022/03/14 01:34:47;;;;;;;8.80;5.97;;;;;;;;;;5026759;28;20036;-68
2022/03/14 01:37:13;;;;;;;8.80;6.35;;;;;;;;;;5024340;28;20104;-68
2022/03/14 01:39:39;;;;;;;11.82;6.22;;;;;;;;;;5026764;28;20046;-68
2022/03/14 01:42:05;;;;;;;6.78;5.97;;;;;;;;;;5026694;28;22655;-68
2022/03/14 01:44:31;;;;;;;6.63;5.88;;;;;;;;;;5027616;28;20104;-68
2022/03/14 01:46:57;;;;;;;7.28;5.65;;;;;;;;;;5026396;28;20038;-68
2022/03/14 01:49:23;;;;;;;8.63;6.00;;;;;;;;;;5029930;28;20049;-67
2022/03/14 01:51:52;;;;;;;7.80;5.68;;;;;;;;;;5029951;28;20029;-68
2022/03/14 01:54:18;;;;;;;6.72;5.95;;;;;;;;;;5030438;28;20032;-68
2022/03/14 01:56:45;;;;;;;9.77;6.10;;;;;;;;;;5026239;28;20049;-68
2022/03/14 01:59:11;;;;;;;8.90;6.45;;;;;;;;;;5026165;28;20037;-67
2022/03/14 02:01:36;;;;;;;7.25;5.43;;;;;;;;;;5025525;28;20030;-68
2022/03/14 02:04:03;;;;;;;10.25;5.90;;;;;;;;;;5028932;28;20029;-67
2022/03/14 02:06:29;;;;;;;7.05;5.53;;;;;;;;;;5029977;28;20358;-67
2022/03/14 02:08:55;;;;;;;8.55;5.60;;;;;;;;;;5028615;28;20036;-68
2022/03/14 02:11:21;;;;;;;6.97;5.63;;;;;;;;;;5028547;28;20025;-67
2022/03/14 02:13:47;;;;;;;6.70;5.68;;;;;;;;;;5029854;28;20383;-67
2022/03/14 02:16:13;;;;;;;9.07;5.25;;;;;;;;;;5029960;28;20032;-68
2022/03/14 02:18:38;;;;;;;7.07;5.55;;;;;;;;;;5030043;28;20025;-66
2022/03/14 02:21:08;;;;;;;7.32;5.40;;;;;;;;;;5027998;28;20037;-68
2022/03/14 02:23:34;;;;;;;5.15;4.63;;;;;;;;;;5029017;28;20033;-68
2022/03/14 02:26:00;;;;;;;7.18;5.05;;;;;;;;;;5025906;28;20029;-67
2022/03/14 02:28:27;;;;;;;7.75;5.25;;;;;;;;;;5030957;28;20497;-68
2022/03/14 02:30:53;;;;;;;5.25;4.72;;;;;;;;;;5028973;28;20037;-68
2022/03/14 02:33:20;;;;;;;8.45;5.78;;;;;;;;;;5029333;28;20029;-67
2022/03/14 02:35:49;;;;;;;12.70;5.22;;;;;;;;;;5029112;28;20756;-68
2022/03/14 02:38:16;;;;;;;8.82;4.85;;;;;;;;;;5028570;28;20041;-67
2022/03/14 02:40:46;;;;;;;7.63;5.28;;;;;;;;;;5025933;28;20099;-67
2022/03/14 02:43:16;;;;;;;7.13;4.82;;;;;;;;;;5029102;28;20108;-67
2022/03/14 02:45:47;;;;;;;6.15;4.95;;;;;;;;;;5028751;28;20034;-67
2022/03/14 02:48:13;;;;;;;7.73;5.40;;;;;;;;;;5027025;28;20058;-68
2022/03/14 02:50:42;;;;;;;7.85;4.93;;;;;;;;;;5029137;28;20032;-68
2022/03/14 02:53:13;;;;;;;5.75;4.97;;;;;;;;;;5028517;28;20160;-68
2022/03/14 02:55:39;;;;;;;8.50;5.53;;;;;;;;;;5025987;28;20030;-68
2022/03/14 02:58:06;;;;;;;5.05;4.57;;;;;;;;;;5027952;28;20021;-67
2022/03/14 03:00:35;;;;;;;9.93;5.15;;;;;;;;;;5026912;28;20087;-67
2022/03/14 03:03:02;;;;;;;5.20;4.70;;;;;;;;;;5028663;28;20025;-67
2022/03/14 03:05:31;;;;;;;5.78;5.07;;;;;;;;;;5028723;28;20045;-68
2022/03/14 03:08:01;;;;;;;6.38;4.95;;;;;;;;;;5028592;28;20524;-67
2022/03/14 03:10:28;;;;;;;6.25;4.68;;;;;;;;;;5028226;28;20038;-68
2022/03/14 03:12:54;;;;;;;9.18;4.55;;;;;;;;;;5027328;28;20426;-68
2022/03/14 03:15:20;;;;;;;7.53;4.63;;;;;;;;;;5027313;28;20021;-66
2022/03/14 03:17:46;;;;;;;5.63;5.00;;;;;;;;;;5027694;28;20382;-68
2022/03/14 03:20:12;;;;;;;5.47;4.65;;;;;;;;;;5027084;28;20022;-68
2022/03/14 03:22:38;;;;;;;6.18;4.07;;;;;;;;;;5025121;28;20529;-67
2022/03/14 03:25:07;;;;;;;5.82;4.63;;;;;;;;;;5025688;28;20402;-68
2022/03/14 03:27:32;;;;;;;4.65;4.13;;;;;;;;;;5027613;28;20075;-67
2022/03/14 03:29:59;;;;;;;6.55;4.57;;;;;;;;;;5027640;28;20057;-68
2022/03/14 03:32:25;;;;;;;7.20;4.65;;;;;;;;;;5026277;28;20091;-68
2022/03/14 03:34:51;;;;;;;8.23;4.88;;;;;;;;;;5028764;28;20482;-68
2022/03/14 03:37:17;;;;;;;5.82;4.50;;;;;;;;;;5028973;28;20025;-68
2022/03/14 03:39:44;;;;;;;8.27;4.70;;;;;;;;;;5026713;28;20084;-68
2022/03/14 03:42:10;;;;;;;7.05;4.45;;;;;;;;;;5027686;28;20029;-68
2022/03/14 03:44:36;;;;;;;5.53;4.32;;;;;;;;;;5027571;28;20025;-68
2022/03/14 03:47:02;;;;;;;6.68;4.88;;;;;;;;;;5027210;28;20120;-67
2022/03/14 03:49:28;;;;;;;6.10;4.38;;;;;;;;;;5029149;28;20049;-67
2022/03/14 03:51:54;;;;;;;8.18;4.50;;;;;;;;;;5028186;28;20171;-67
2022/03/14 03:54:21;;;;;;;6.07;4.28;;;;;;;;;;5026881;28;20028;-68
2022/03/14 03:56:48;;;;;;;5.75;4.60;;;;;;;;;;5021956;28;20029;-67
2022/03/14 03:59:14;;;;;;;5.55;4.40;;;;;;;;;;5028458;28;20033;-68
2022/03/14 04:01:39;;;;;;;5.00;3.85;;;;;;;;;;5024149;28;20112;-68
2022/03/14 04:04:05;;;;;;;8.73;4.65;;;;;;;;;;5028487;28;20021;-67
2022/03/14 04:06:31;;;;;;;7.75;4.30;;;;;;;;;;5027291;28;20060;-69
2022/03/14 04:09:03;;;;;;;7.20;4.30;;;;;;;;;;5026247;28;20033;-68
2022/03/14 04:11:29;;;;;;;6.40;4.20;;;;;;;;;;5026875;28;20029;-67
2022/03/14 04:14:15;;;;;;;5.55;3.95;;;;;;;;;;5026941;28;20033;-67
2022/03/14 04:17:02;;;;;;;4.45;4.05;;;;;;;;;;5026509;28;20030;-68
2022/03/14 04:19:48;;;;;;;5.70;4.05;;;;;;;;;;5025110;28;20040;-68
2022/03/14 04:22:38;;;;;;;7.65;4.38;;;;;;;;;;5026710;28;20132;-68
2022/03/14 04:25:23;;;;;;;6.47;3.92;;;;;;;;;;5026056;28;20033;-68
2022/03/14 04:28:08;;;;;;;4.82;3.92;;;;;;;;;;5024222;28;20482;-67
2022/03/14 04:30:54;;;;;;;5.35;4.07;;;;;;;;;;5027490;28;20037;-68
2022/03/14 04:33:39;;;;;;;4.68;4.28;;;;;;;;;;5025856;28;20040;-68
2022/03/14 04:36:23;;;;;;;5.22;3.97;;;;;;;;;;5027124;28;20071;-68
2022/03/14 04:39:07;;;;;;;8.82;3.80;;;;;;;;;;5026592;28;20045;-68
2022/03/14 04:41:51;;;;;;;5.38;4.18;;;;;;;;;;5027285;28;20034;-68
2022/03/14 04:44:36;;;;;;;3.90;3.60;;;;;;;;;;5024684;28;20109;-68
2022/03/14 04:47:20;;;;;;;6.63;4.07;;;;;;;;;;5025586;28;20036;-68
2022/03/14 04:50:05;;;;;;;4.30;3.83;;;;;;;;;;5026507;28;20049;-68
2022/03/14 04:52:50;;;;;;;6.05;3.80;;;;;;;;;;5027446;28;20060;-68
2022/03/14 04:55:35;;;;;;;7.40;3.92;;;;;;;;;;5027490;28;20119;-68
2022/03/14 04:58:19;;;;;;;5.82;3.90;;;;;;;;;;5027817;28;20068;-68
2022/03/14 05:01:04;;;;;;;6.70;4.07;;;;;;;;;;5025445;28;20486;-68
2022/03/14 05:03:48;;;;;;;4.38;3.67;;;;;;;;;;5024820;28;20082;-68
2022/03/14 05:06:35;;;;;;;3.70;3.35;;;;;;;;;;5024246;28;20041;-68
2022/03/14 05:09:19;;;;;;;3.90;3.53;;;;;;;;;;5022047;28;20044;-65
2022/03/14 05:12:03;;;;;;;3.60;3.30;;;;;;;;;;5027577;28;20101;-67
2022/03/14 05:14:51;;;;;;;7.05;3.50;;;;;;;;;;5025782;28;20040;-67
2022/03/14 05:17:36;;;;;;;5.32;4.00;;;;;;;;;;5026251;28;20116;-67
2022/03/14 05:20:20;;;;;;;5.47;3.95;;;;;;;;;;5025456;28;20029;-68
2022/03/14 05:23:04;;;;;;;6.43;3.13;;;;;;;;;;5029410;28;20079;-67
2022/03/14 05:25:48;;;;;;;4.20;3.38;;;;;;;;;;5024706;28;20033;-67
2022/03/14 05:28:32;;;;;;;5.10;3.75;;;;;;;;;;5031364;28;20087;-68
2022/03/14 05:31:17;;;;;;;4.38;3.47;;;;;;;;;;5031726;28;20040;-68
2022/03/14 05:34:01;;;;;;;6.45;3.45;;;;;;;;;;5030754;28;20048;-67
2022/03/14 05:36:45;;;;;;;4.90;3.60;;;;;;;;;;5029382;28;20040;-67
2022/03/14 05:39:29;;;;;;;3.90;3.50;;;;;;;;;;5030261;28;20035;-67
2022/03/14 05:42:13;;;;;;;3.65;3.22;;;;;;;;;;5025091;28;20390;-68
2022/03/14 05:44:56;;;;;;;6.20;3.47;;;;;;;;;;5029417;28;20043;-68
2022/03/14 05:47:41;;;;;;;4.72;3.60;;;;;;;;;;5030017;28;20061;-68
2022/03/14 05:50:25;;;;;;;5.13;3.47;;;;;;;;;;5026042;28;20089;-68
2022/03/14 05:53:11;;;;;;;4.50;3.65;;;;;;;;;;5022939;28;20044;-68
2022/03/14 05:55:56;;;;;;;4.10;3.70;;;;;;;;;;5029695;28;20044;-68
2022/03/14 05:58:41;;;;;;;3.90;3.47;;;;;;;;;;5030023;28;20087;-67
2022/03/14 06:01:25;;;;;;;7.00;3.70;;;;;;;;;;5029018;28;20028;-67
2022/03/14 06:04:09;;;;;;;5.97;3.63;;;;;;;;;;5029624;28;20036;-68
2022/03/14 06:06:53;;;;;;;8.35;3.70;;;;;;;;;;5027798;28;20048;-68
2022/03/14 06:09:37;;;;;;;4.60;3.80;;;;;;;;;;5030313;28;20128;-67
2022/03/14 06:12:26;;;;;;;11.93;4.38;;;;;;;;;;5025262;28;20453;-68
2022/03/14 06:15:16;;;;;;;4.15;3.75;;;;;;;;;;5026159;28;20087;-69
2022/03/14 06:18:00;;;;;;;5.35;3.42;;;;;;;;;;5026791;28;20164;-67
2022/03/14 06:20:44;;;;;;;4.93;3.83;;;;;;;;;;5027630;28;20036;-68
2022/03/14 06:23:29;;;;;;;5.65;3.83;;;;;;;;;;5027395;28;20036;-67
2022/03/14 06:26:14;;;;;;;4.53;3.72;;;;;;;;;;5016860;28;20047;-67
2022/03/14 06:28:58;;;;;;;3.42;3.13;;;;;;;;;;5027517;28;20024;-68
2022/03/14 06:31:42;;;;;;;3.70;3.20;;;;;;;;;;5024717;28;20060;-65
2022/03/14 06:34:27;;;;;;;3.42;2.75;;;;;;;;;;5023691;28;20056;-65
2022/03/14 06:36:53;;;;;;;3.92;3.38;;;;;;;;;;5021283;28;20041;-65
2022/03/14 06:39:19;;;;;;;3.80;3.40;;;;;;;;;;5022673;28;20010;-64
2022/03/14 06:41:45;;;;;;;6.18;3.88;;;;;;;;;;5025059;28;20060;-65
2022/03/14 06:44:13;;;;;;;6.50;3.30;;;;;;;;;;5027626;28;20045;-65
2022/03/14 06:46:39;;;;;;;6.25;3.33;;;;;;;;;;5026820;28;20227;-63
2022/03/14 06:49:06;;;;;;;6.90;3.70;;;;;;;;;;5022973;28;20034;-64
2022/03/14 06:51:33;;;;;;;4.13;3.47;;;;;;;;;;5029197;28;20025;-65
2022/03/14 06:53:59;;;;;;;4.07;3.67;;;;;;;;;;5027767;28;20360;-65
2022/03/14 06:56:24;;;;;;;4.88;3.03;;;;;;;;;;5026342;28;20028;-65
2022/03/14 06:58:50;;;;;;;3.65;2.67;;;;;;;;;;5023672;28;20026;-65
2022/03/14 07:01:16;;;;;;;6.28;3.08;;;;;;;;;;5028315;28;20046;-64
2022/03/14 07:03:42;;;;;;;6.22;3.50;;;;;;;;;;5027393;28;20112;-65
2022/03/14 07:06:07;;;;;;;3.28;2.85;;;;;;;;;;5025468;28;20033;-65
2022/03/14 07:08:33;;;;;;;6.97;2.83;;;;;;;;;;5028132;28;20022;-65
2022/03/14 07:10:59;;;;;;;5.07;3.33;;;;;;;;;;5030022;28;20129;-65
2022/03/14 07:13:24;;;;;;;3.80;3.40;;;;;;;;;;5030247;28;20029;-65
2022/03/14 07:15:50;;;;;;;3.90;2.60;;;;;;;;;;5027503;28;21078;-66
2022/03/14 07:18:16;;;;;;;9.32;3.10;;;;;;;;;;5027144;28;20037;-65
2022/03/14 07:20:42;;;;;;;5.55;2.95;;;;;;;;;;5028526;28;20028;-65
2022/03/14 07:23:08;;;;;;;7.20;3.65;;;;;;;;;;5027483;28;20116;-66
2022/03/14 07:25:37;;;;;;;5.30;3.13;;;;;;;;;;5029325;28;20112;-66
2022/03/14 07:28:06;;;;;;;6.55;2.60;;;;;;;;;;5025088;28;20045;-65
2022/03/14 07:30:32;;;;;;;3.35;2.80;;;;;;;;;;5028565;28;20044;-66
2022/03/14 07:32:57;;;;;;;4.47;2.72;;;;;;;;;;5027863;28;20026;-65
2022/03/14 07:35:26;;;;;;;3.47;3.00;;;;;;;;;;5027992;28;20053;-65
2022/03/14 07:37:52;;;;;;;6.20;3.10;;;;;;;;;;5028443;28;20025;-65
2022/03/14 07:40:18;;;;;;;3.58;2.50;;;;;;;;;;5028511;28;20412;-66
2022/03/14 07:42:46;;;;;;;12.88;3.03;;;;;;;;;;5023445;28;20111;-65
2022/03/14 07:45:14;;;;;;;5.63;2.65;;;;;;;;;;5027197;28;20026;-65
2022/03/14 07:47:40;;;;;;;3.63;2.72;;;;;;;;;;5028707;28;20073;-65
2022/03/14 07:50:08;;;;;;;3.25;2.72;;;;;;;;;;5027668;28;20446;-65
2022/03/14 07:52:35;;;;;;;4.88;2.42;;;;;;;;;;5030449;28;20120;-65
2022/03/14 07:55:02;;;;;;;6.00;2.75;;;;;;;;;;5027613;28;20118;-65
2022/03/14 07:57:27;;;;;;;3.20;2.72;;;;;;;;;;5022294;28;20029;-65
2022/03/14 07:59:53;;;;;;;3.25;2.40;;;;;;;;;;5022698;28;20036;-65
2022/03/14 08:02:20;;;;;;;3.35;2.90;;;;;;;;;;5021284;28;20108;-65
2022/03/14 08:04:45;;;;;;;2.78;2.10;;;;;;;;;;5026035;28;20095;-65
2022/03/14 08:07:11;;;;;;;4.32;2.70;;;;;;;;;;5026098;28;20029;-64
2022/03/14 08:09:37;;;;;;;4.43;2.55;;;;;;;;;;5020407;28;20123;-64
2022/03/14 08:12:05;;;;;;;6.40;3.90;;;;;;;;;;5022907;28;20539;-65
2022/03/14 08:14:33;;;;;;;3.58;2.30;;;;;;;;;;5023858;28;20325;-64
2022/03/14 08:16:59;;;;;;;3.67;2.20;;;;;;;;;;5019875;28;20481;-65
2022/03/14 08:19:25;;;;;;;3.50;2.17;;;;;;;;;;5026387;28;20057;-64
2022/03/14 08:21:51;;;;;;;4.50;2.65;;;;;;;;;;5024509;28;20167;-65
2022/03/14 08:24:17;;;;;;;3.83;2.63;;;;;;;;;;5021907;28;20073;-65
2022/03/14 08:26:43;;;;;;;2.72;2.38;;;;;;;;;;5019381;28;20056;-65
2022/03/14 08:29:09;;;;;;;2.53;2.33;;;;;;;;;;5022707;28;20072;-65
2022/03/14 08:31:36;;;;;;;2.90;2.40;;;;;;;;;;5025896;28;20041;-64
2022/03/14 08:34:01;;;;;;;5.13;2.80;;;;;;;;;;5024756;28;20041;-65
2022/03/14 08:36:27;;;;;;;2.63;2.38;;;;;;;;;;5024603;28;20048;-64
2022/03/14 08:38:54;;;;;;;4.18;2.38;;;;;;;;;;5021842;28;20495;-65
2022/03/14 08:41:20;;;;;;;2.75;2.25;;;;;;;;;;5026386;28;20034;-64
2022/03/14 08:43:46;;;;;;;2.90;2.38;;;;;;;;;;5023809;28;20033;-65
2022/03/14 08:46:15;;;;;;;2.30;2.10;;;;;;;;;;5025180;28;20029;-65
2022/03/14 08:48:41;;;;;;;2.58;2.20;;;;;;;;;;5026009;28;20512;-64
2022/03/14 08:51:07;;;;;;;2.88;2.65;;;;;;;;;;5027123;28;20033;-64
2022/03/14 08:53:33;;;;;;;2.92;2.00;;;;;;;;;;5026168;28;20705;-64
2022/03/14 08:56:03;;;;;;;3.65;2.22;;;;;;;;;;5024689;28;20025;-65
2022/03/14 08:58:29;;;;;;;2.60;2.30;;;;;;;;;;5026776;28;20030;-65
2022/03/14 09:00:58;;;;;;;3.10;2.20;;;;;;;;;;5023449;28;20525;-64
2022/03/14 09:03:27;;;;;;;2.65;2.45;;;;;;;;;;5024280;28;20037;-64
2022/03/14 09:05:56;;;;;;;5.07;2.00;;;;;;;;;;5020101;28;20394;-65
2022/03/14 09:08:26;;;;;;;2.20;1.98;;;;;;;;;;5025936;28;20029;-64
2022/03/14 09:10:53;;;;;;;2.78;1.80;;;;;;;;;;5025806;28;20117;-65
2022/03/14 09:13:21;;;;;;;2.10;1.70;;;;;;;;;;5027349;28;20111;-65
2022/03/14 09:15:48;;;;;;;2.20;2.00;;;;;;;;;;5024608;28;20383;-65
2022/03/14 09:18:14;;;;;;;1.92;1.80;;;;;;;;;;5022472;28;20026;-65
2022/03/14 09:20:41;;;;;;;3.05;1.80;;;;;;;;;;5025395;28;20034;-64
2022/03/14 09:23:08;;;;;;;2.28;2.08;;;;;;;;;;5027326;28;20034;-65
2022/03/14 09:25:34;;;;;;;5.05;1.98;;;;;;;;;;5025694;28;20036;-65
2022/03/14 09:28:00;;;;;;;2.10;1.90;;;;;;;;;;5025808;28;20021;-64
2022/03/14 09:30:26;;;;;;;3.00;1.70;;;;;;;;;;5023539;28;20049;-65
2022/03/14 09:32:53;;;;;;;3.47;3.17;;;;;;;;;;5025915;28;20044;-65
2022/03/14 09:35:20;;;;;;;3.78;2.50;;;;;;;;;;5023778;28;20041;-64
2022/03/14 09:37:47;;;;;;;9.25;1.83;;;;;;;;;;5023528;28;20476;-65
2022/03/14 09:40:17;;;;;;;2.50;2.20;;;;;;;;;;5025542;28;20079;-65
2022/03/14 09:42:46;;;;;;;3.38;2.00;;;;;;;;;;5023772;28;20075;-64
2022/03/14 09:45:14;;;;;;;2.20;1.73;;;;;;;;;;5023490;28;20497;-64
2022/03/14 09:47:42;;;;;;;17.20;1.90;;;;;;;;;;5025238;28;20132;-64
2022/03/14 09:50:12;;;;;;;7.78;2.20;;;;;;;;;;5024492;28;20486;-65
2022/03/14 09:52:42;;;;;;;4.35;2.03;;;;;;;;;;5026362;28;20048;-65
2022/03/14 09:55:10;;;;;;;2.63;1.63;;;;;;;;;;5025138;28;20041;-65
2022/03/14 09:57:37;;;;;;;2.75;2.30;;;;;;;;;;5024439;28;20091;-65
2022/03/14 10:00:15;;;;;;;2.35;1.73;;;;;;;;;;5024383;28;20101;-64
2022/03/14 10:02:43;;;;;;;1.98;1.85;;;;;;;;;;5024930;28;20116;-64
2022/03/14 10:05:13;;;;;;;2.67;2.47;;;;;;;;;;5020645;28;20029;-64
2022/03/14 10:07:45;;;;;;;1.77;1.63;;;;;;;;;;5021255;28;20029;-65
2022/03/14 10:10:13;;;;;;;3.05;1.60;;;;;;;;;;5023888;28;20096;-64
2022/03/14 10:12:41;;;;;;;2.35;1.58;;;;;;;;;;5029095;28;20033;-64
2022/03/14 10:15:09;;;;;;;1.80;1.70;;;;;;;;;;5028340;28;20107;-65
2022/03/14 10:17:35;;;;;;;2.80;2.42;;;;;;;;;;5027869;28;20032;-64
2022/03/14 10:20:02;;;;;;;4.60;1.75;;;;;;;;;;5029482;28;20029;-64
2022/03/14 10:22:36;;;;;;;3.38;2.30;;;;;;;;;;5030287;28;20524;-64
2022/03/14 10:25:10;;;;;;;1.65;1.55;;;;;;;;;;5024673;28;20090;-64
2022/03/14 10:27:38;;;;;;;2.08;1.60;;;;;;;;;;5028222;28;20045;-65
2022/03/14 10:30:06;;;;;;;4.55;2.70;;;;;;;;;;5028577;28;20033;-65
2022/03/14 10:32:33;;;;;;;5.57;3.47;;;;;;;;;;5028435;28;20740;-65
2022/03/14 10:35:08;;;;;;;4.10;3.03;;;;;;;;;;5030281;28;20025;-65
2022/03/14 10:37:35;;;;;;;3.03;2.20;;;;;;;;;;5029000;28;20038;-65
2022/03/14 10:40:07;;;;;;;3.47;1.92;;;;;;;;;;5029492;28;20072;-64
2022/03/14 10:42:37;;;;;;;;;;;;;;;;;;5026810;28;20041;-65
2022/03/14 10:45:09;;;;;;;1.40;1.30;;;;;;;;;;5027815;28;19928;-64
2022/03/14 10:47:35;;;;;;;2.30;2.10;;;;;;;;;;5028361;28;20034;-64
2022/03/14 10:50:00;;;;;;;3.30;2.38;;;;;;;;;;5028979;28;20052;-63
2022/03/14 10:52:27;;;;;;;2.58;2.38;;;;;;;;;;5021055;28;20030;-64
2022/03/14 10:54:53;;;;;;;4.97;2.60;;;;;;;;;;5028503;28;20057;-64
2022/03/14 10:57:25;;;;;;;2.85;1.90;;;;;;;;;;5027669;28;20060;-64
2022/03/14 10:59:53;;;;;;;2.25;1.70;;;;;;;;;;5028167;28;20025;-64
2022/03/14 11:02:26;;;;;;;3.10;2.20;;;;;;;;;;5024945;28;20078;-64
2022/03/14 11:04:53;;;;;;;2.65;1.55;;;;;;;;;;5027985;28;20037;-65
2022/03/14 11:07:23;;;;;;;4.03;1.60;;;;;;;;;;5028254;28;20018;-64
2022/03/14 11:09:51;;;;;;;1.60;1.50;;;;;;;;;;5029083;28;20029;-64
2022/03/14 11:12:20;;;;;;;4.57;1.98;;;;;;;;;;5026445;28;20026;-64
2022/03/14 11:15:04;;;;;;;2.58;1.50;;;;;;;;;;5026264;28;20044;-64
2022/03/14 11:17:35;;;;;;;3.08;1.50;;;;;;;;;;5026385;28;20036;-64
2022/03/14 11:20:02;;;;;;;3.47;1.58;;;;;;;;;;5027851;28;20082;-64
2022/03/14 11:22:30;;;;;;;1.77;1.60;;;;;;;;;;5027273;28;20026;-64
2022/03/14 11:24:58;;;;;;;2.97;1.80;;;;;;;;;;5033521;28;20037;-64
2022/03/14 11:27:24;;;;;;;4.90;2.58;;;;;;;;;;5028517;28;20033;-64
2022/03/14 11:29:53;;;;;;;2.17;1.73;;;;;;;;;;5027444;28;20079;-64
2022/03/14 11:32:20;;;;;;;1.70;1.60;;;;;;;;;;5027353;28;20029;-65
2022/03/14 11:34:47;;;;;;;2.00;1.67;;;;;;;;;;5029027;28;20096;-64
2022/03/14 11:37:14;;;;;;;1.95;1.85;;;;;;;;;;5029139;28;20060;-64
2022/03/14 11:39:41;;;;;;;1.83;1.70;;;;;;;;;;5025619;28;20041;-64
2022/03/14 11:42:08;;;;;;;3.25;1.75;;;;;;;;;;5024180;28;20503;-64
2022/03/14 11:44:34;;;;;;;3.85;1.60;;;;;;;;;;5027430;28;20083;-64
2022/03/14 11:47:02;;;;;;;2.03;1.60;;;;;;;;;;5024585;28;20053;-64
2022/03/14 11:49:28;;;;;;;1.67;1.52;;;;;;;;;;5023894;28;20164;-64
2022/03/14 11:52:18;;;;;;;1.80;1.70;;;;;;;;;;5021815;28;20425;-64
2022/03/14 11:54:49;;;;;;;2.60;1.80;;;;;;;;;;5024228;28;20108;-65
2022/03/14 11:57:36;;;;;;;3.05;1.80;;;;;;;;;;5025052;28;20196;-64
2022/03/14 12:00:21;;;;;;;5.72;1.98;;;;;;;;;;5021082;28;20026;-63
2022/03/14 12:02:48;;;;;;;4.10;1.80;;;;;;;;;;5023207;28;20031;-63
2022/03/14 12:05:20;;;;;;;2.00;1.75;;;;;;;;;;5024099;28;20063;-64
2022/03/14 12:07:45;;;;;;;5.90;1.90;;;;;;;;;;5020812;28;20113;-63
2022/03/14 12:10:28;;;;;;;1.70;1.60;;;;;;;;;;5023167;28;20120;-63
2022/03/14 12:12:55;;;;;;;3.25;1.88;;;;;;;;;;5023251;28;20163;-64
2022/03/14 12:15:37;;;;;;;3.38;1.95;;;;;;;;;;5024500;28;20036;-63
2022/03/14 12:18:26;;;;;;;2.75;2.00;;;;;;;;;;5026024;28;20596;-63
2022/03/14 12:20:59;;;;;;;2.95;1.60;;;;;;;;;;5026622;28;20044;-64
2022/03/14 12:23:34;;;;;;;2.50;1.85;;;;;;;;;;5025412;28;20021;-63
2022/03/14 12:26:02;;;;;;;4.40;1.70;;;;;;;;;;5025788;28;20033;-63
2022/03/14 12:28:36;;;;;;;1.40;1.30;;;;;;;;;;5027126;28;20037;-64
2022/03/14 12:31:04;;;;;;;2.20;1.38;;;;;;;;;;5017707;28;20040;-64
2022/03/14 12:33:35;;;;;;;3.20;1.35;;;;;;;;;;5020759;28;20049;-64
2022/03/14 12:36:34;;;;;;;1.48;1.30;;;;;;;;;;5025006;28;20490;-64
2022/03/14 12:39:05;;;;;;;1.48;1.33;;;;;;;;;;4984410;28;20043;-63
2022/03/14 12:41:31;;;;;;;1.58;1.25;;;;;;;;;;4985201;28;20053;-64
2022/03/14 12:43:57;;;;;;;1.98;1.40;;;;;;;;;;4983985;28;20458;-63
2022/03/14 12:46:25;;;;;;;1.30;1.20;;;;;;;;;;4982792;28;20034;-63
2022/03/14 12:48:54;;;;;;;1.85;1.27;;;;;;;;;;4979658;28;20617;-64
2022/03/14 12:51:33;;;;;;;4.85;1.40;;;;;;;;;;4978483;28;20054;-63
2022/03/14 12:54:00;;;;;;;1.70;1.15;;;;;;;;;;4984094;28;20034;-64
2022/03/14 12:56:28;;;;;;;2.17;1.33;;;;;;;;;;4982581;28;20050;-64
2022/03/14 12:58:58;;;;;;;1.67;1.58;;;;;;;;;;4985126;28;20045;-64
2022/03/14 13:01:26;;;;;;;1.90;1.50;;;;;;;;;;4985593;28;20045;-64
2022/03/14 13:03:52;;;;;;;2.20;1.63;;;;;;;;;;4981450;28;20042;-64
2022/03/14 13:06:27;;;;;;;1.80;1.40;;;;;;;;;;4978113;28;20030;-64
2022/03/14 13:08:52;;;;;;;2.88;2.20;;;;;;;;;;4977061;28;20042;-64
2022/03/14 13:11:18;;;;;;;3.72;2.00;;;;;;;;;;4984501;28;20128;-64
2022/03/14 13:13:44;;;;;;;1.58;1.48;;;;;;;;;;4989102;28;20540;-64
2022/03/14 13:16:19;;;;;;;1.90;1.70;;;;;;;;;;5020816;28;20455;-65
2022/03/14 13:18:49;;;;;;;1.73;1.38;;;;;;;;;;5022137;28;20109;-64
2022/03/14 13:21:25;;;;;;;3.78;1.92;;;;;;;;;;5025744;28;20025;-64
2022/03/14 13:24:03;;;;;;;5.35;1.60;;;;;;;;;;5022170;28;20033;-64
2022/03/14 13:26:33;;;;;;;2.00;1.70;;;;;;;;;;5019962;28;20030;-64
2022/03/14 13:29:01;;;;;;;2.55;1.92;;;;;;;;;;5025733;28;20378;-64
2022/03/14 13:31:39;;;;;;;5.80;1.80;;;;;;;;;;5022270;28;20037;-64
2022/03/14 13:34:07;;;;;;;4.38;2.25;;;;;;;;;;5018775;28;20033;-65
2022/03/14 13:36:41;;;;;;;2.17;1.80;;;;;;;;;;5017312;28;20120;-65
2022/03/14 13:39:09;;;;;;;4.82;1.70;;;;;;;;;;5016687;28;20506;-65
2022/03/14 13:41:37;;;;;;;3.67;1.90;;;;;;;;;;5017061;28;20475;-64
2022/03/14 13:44:04;;;;;;;2.85;1.88;;;;;;;;;;5019200;28;20195;-64
2022/03/14 13:46:33;;;;;;;2.55;2.20;;;;;;;;;;5019613;28;20043;-65
2022/03/14 13:49:17;;;;;;;3.38;2.30;;;;;;;;;;5020208;28;20132;-65
2022/03/14 13:51:59;;;;;;;4.78;2.60;;;;;;;;;;5022505;28;20437;-65
2022/03/14 13:54:39;;;;;;;6.03;2.70;;;;;;;;;;5021148;28;20041;-65
2022/03/14 13:57:07;;;;;;;3.67;1.98;;;;;;;;;;5029517;28;20072;-64
2022/03/14 13:59:35;;;;;;;4.75;2.00;;;;;;;;;;5025264;28;20037;-64
2022/03/14 14:02:09;;;;;;;2.42;2.33;;;;;;;;;;5019148;28;20060;-63
2022/03/14 14:04:42;;;;;;;2.80;1.92;;;;;;;;;;5021696;28;20029;-64
2022/03/14 14:07:23;;;;;;;2.53;2.17;;;;;;;;;;5027653;28;20055;-64
2022/03/14 14:09:51;;;;;;;3.55;1.95;;;;;;;;;;5024635;28;20457;-65
2022/03/14 14:12:33;;;;;;;2.55;1.63;;;;;;;;;;5024872;28;20076;-64
2022/03/14 14:15:06;;;;;;;2.65;1.80;;;;;;;;;;5021936;28;20037;-65
2022/03/14 14:17:52;;;;;;;7.50;2.15;;;;;;;;;;5022229;28;20029;-64
2022/03/14 14:20:22;;;;;;;5.00;2.50;;;;;;;;;;5023365;28;20041;-65
2022/03/14 14:22:53;;;;;;;2.67;2.30;;;;;;;;;;5020158;28;20034;-64
2022/03/14 14:25:22;;;;;;;2.20;2.00;;;;;;;;;;5026051;28;20048;-65
2022/03/14 14:27:53;;;;;;;3.38;1.80;;;;;;;;;;5022393;28;20021;-65
2022/03/14 14:30:52;;;;;;;2.45;2.10;;;;;;;;;;5018837;28;20546;-65
2022/03/14 14:33:23;;;;;;;4.32;2.03;;;;;;;;;;5020630;28;20045;-65
2022/03/14 14:35:48;;;;;;;5.32;3.25;;;;;;;;;;5022426;28;20116;-64
2022/03/14 14:38:16;;;;;;;5.90;3.40;;;;;;;;;;5021262;28;20104;-64
2022/03/14 14:40:46;;;;;;;5.55;3.40;;;;;;;;;;5022277;28;20021;-64
2022/03/14 14:43:12;;;;;;;2.67;2.33;;;;;;;;;;5026962;28;20049;-65
2022/03/14 14:45:39;;;;;;;3.63;2.30;;;;;;;;;;5021239;28;20160;-65
2022/03/14 14:48:05;;;;;;;2.80;2.35;;;;;;;;;;5026657;28;20540;-65
2022/03/14 14:50:32;;;;;;;7.38;3.80;;;;;;;;;;5026794;28;20107;-64
2022/03/14 14:52:58;;;;;;;5.55;3.72;;;;;;;;;;5024832;28;20033;-64
2022/03/14 14:55:24;;;;;;;6.43;3.50;;;;;;;;;;5020374;28;20064;-64
2022/03/14 14:57:52;;;;;;;6.97;2.65;;;;;;;;;;5022855;28;20450;-64
2022/03/14 15:00:19;;;;;;;6.35;3.20;;;;;;;;;;5016768;28;20041;-64
2022/03/14 15:02:44;;;;;;;5.68;3.25;;;;;;;;;;5019720;28;20441;-64
2022/03/14 15:05:10;;;;;;;4.30;2.30;;;;;;;;;;5023707;28;20735;-64